Time;durP1;ratioP1;P1;durP2;ratioP2;P2;SDS_P1;SDS_P2;PMS_P1;PMS_P2;Temp;Humidity;BMP_temperature;BMP_pressure;BME280_temperature;BME280_humidity;BME280_pressure;Samples;Min_cycle;Max_cycle;Signal;HPM_P1;HPM_P2
2023/11/23 00:01:48;;;;;;;69.50;34.10;;;;;;;-1.67;90.96;101203.77;104927;1270;97888;-80
2023/11/23 00:04:34;;;;;;;66.70;31.00;;;;;;;-1.67;90.86;101195.92;105091;1265;97989;-79
2023/11/23 00:07:20;;;;;;;71.70;33.70;;;;;;;-1.67;90.95;101194.88;105074;1271;99690;-79
2023/11/23 00:10:06;;;;;;;70.10;32.40;;;;;;;-1.68;91.04;101191.64;104874;1278;101406;-79
2023/11/23 00:12:52;;;;;;;63.10;30.70;;;;;;;-1.70;90.99;101187.20;104924;1270;100449;-78
2023/11/23 00:15:38;;;;;;;65.50;28.50;;;;;;;-1.72;91.09;101176.66;104893;1269;98003;-79
2023/11/23 00:18:23;;;;;;;57.50;30.50;;;;;;;-1.74;91.23;101176.40;105393;1273;97973;-80
2023/11/23 00:21:09;;;;;;;55.10;27.80;;;;;;;-1.75;91.37;101169.10;105355;1269;97856;-79
2023/11/23 00:23:54;;;;;;;56.60;27.00;;;;;;;-1.76;91.44;101157.95;105965;1273;101606;-79
2023/11/23 00:26:40;;;;;;;61.00;28.80;;;;;;;-1.75;91.48;101142.52;105614;1269;100527;-80
2023/11/23 00:29:26;;;;;;;55.00;26.50;;;;;;;-1.75;91.62;101123.23;106084;1269;98571;-80
2023/11/23 00:32:14;;;;;;;54.90;25.90;;;;;;;-1.75;91.49;101123.08;105413;1270;97997;-80
2023/11/23 00:35:00;;;;;;;56.30;27.40;;;;;;;-1.76;91.44;101116.86;105366;1267;97984;-80
2023/11/23 00:37:45;;;;;;;56.80;26.40;;;;;;;-1.77;91.57;101110.58;105416;1273;101302;-79
2023/11/23 00:40:30;;;;;;;54.00;25.70;;;;;;;-1.77;91.52;101110.09;105861;1269;99134;-80
2023/11/23 00:43:16;;;;;;;65.00;27.00;;;;;;;-1.77;91.57;101117.80;105418;1267;97926;-79
2023/11/23 00:46:04;;;;;;;53.80;27.20;;;;;;;-1.77;91.57;101115.18;105421;1270;97783;-80
2023/11/23 00:48:50;;;;;;;55.20;24.40;;;;;;;-1.78;91.61;101103.11;105456;1267;97773;-79
2023/11/23 00:51:36;;;;;;;52.20;23.60;;;;;;;-1.79;91.54;101099.86;105566;1270;101450;-79
2023/11/23 00:54:22;;;;;;;46.50;24.20;;;;;;;-1.82;91.38;101096.25;105628;1270;99130;-79
2023/11/23 00:57:08;;;;;;;51.60;23.50;;;;;;;-1.85;91.46;101089.92;105389;1270;98764;-80
2023/11/23 00:59:53;;;;;;;46.10;22.20;;;;;;;-1.86;91.59;101086.48;105448;1270;98017;-78
2023/11/23 01:02:39;;;;;;;49.10;23.90;;;;;;;-1.88;91.53;101085.93;105401;1272;99659;-80
2023/11/23 01:05:26;;;;;;;40.60;19.50;;;;;;;-1.89;91.68;101088.78;105387;1271;102779;-80
2023/11/23 01:08:14;;;;;;;44.80;20.70;;;;;;;-1.92;91.65;101090.86;107023;1267;100476;-80
2023/11/23 01:11:01;;;;;;;43.90;20.40;;;;;;;-1.91;91.85;101088.93;105434;1265;99164;-80
2023/11/23 01:13:47;;;;;;;40.60;20.20;;;;;;;-1.89;91.84;101070.61;105492;1267;98864;-79
2023/11/23 01:16:32;;;;;;;34.10;18.40;;;;;;;-1.88;91.90;101063.50;105516;1267;98542;-79
2023/11/23 01:19:17;;;;;;;36.00;17.50;;;;;;;-1.88;91.85;101056.02;105538;1269;102565;-79
2023/11/23 01:22:03;;;;;;;36.40;18.50;;;;;;;-1.90;91.76;101048.22;105567;1266;99545;-79
2023/11/23 01:24:49;;;;;;;38.00;18.60;;;;;;;-1.88;92.01;101049.04;105467;1264;98723;-80
2023/11/23 01:27:36;;;;;;;43.30;20.10;;;;;;;-1.87;92.05;101046.63;105292;1267;98025;-81
2023/11/23 01:30:21;;;;;;;36.80;18.30;;;;;;;-1.86;92.03;101042.79;105499;1267;97824;-80
2023/11/23 01:33:07;;;;;;;31.90;18.70;;;;;;;-1.87;91.99;101029.30;105478;1270;101350;-80
2023/11/23 01:35:52;;;;;;;36.20;17.90;;;;;;;-1.85;92.02;101016.95;105492;1267;99104;-80
2023/11/23 01:38:37;;;;;;;36.90;17.90;;;;;;;-1.83;92.03;101006.48;105482;1270;99063;-80
2023/11/23 01:41:23;;;;;;;34.40;17.20;;;;;;;-1.81;92.09;100998.84;105525;1267;98103;-79
2023/11/23 01:44:11;;;;;;;32.20;16.90;;;;;;;-1.79;92.14;100992.22;105485;1270;97388;-80
2023/11/23 01:46:57;;;;;;;37.90;16.40;;;;;;;-1.78;92.08;100979.17;105482;1267;101361;-78
2023/11/23 01:49:45;;;;;;;35.10;17.60;;;;;;;-1.77;92.18;100963.00;105517;1270;99089;-81
2023/11/23 01:52:31;;;;;;;30.70;16.50;;;;;;;-1.76;92.25;100949.14;105399;1273;99231;-79
2023/11/23 01:55:17;;;;;;;35.00;18.00;;;;;;;-1.76;92.31;100937.55;105330;1268;99336;-79
2023/11/23 01:58:06;;;;;;;33.60;17.50;;;;;;;-1.74;92.43;100925.57;105443;1267;97913;-80
2023/11/23 02:00:52;;;;;;;34.80;16.60;;;;;;;-1.73;92.50;100917.41;105432;1267;101389;-81
2023/11/23 02:03:39;;;;;;;29.80;16.00;;;;;;;-1.71;92.58;100913.45;105343;1267;99106;-80
2023/11/23 02:06:24;;;;;;;32.00;16.00;;;;;;;-1.72;92.45;100913.48;106054;1267;98293;-81
2023/11/23 02:09:10;;;;;;;32.40;16.80;;;;;;;-1.70;92.62;100924.59;105334;1267;97966;-80
2023/11/23 02:11:55;;;;;;;32.40;16.50;;;;;;;-1.69;92.59;100920.32;105889;1266;97940;-82
2023/11/23 02:14:41;;;;;;;30.00;15.90;;;;;;;-1.69;92.48;100918.35;105780;1267;101385;-81
2023/11/23 02:17:30;;;;;;;36.30;18.10;;;;;;;-1.68;92.66;100914.31;105958;1267;98983;-81
2023/11/23 02:20:16;;;;;;;31.70;17.80;;;;;;;-1.68;92.69;100908.15;105782;1269;99416;-81
2023/11/23 02:23:01;;;;;;;38.70;18.30;;;;;;;-1.65;92.95;100893.27;105573;1270;97950;-80
2023/11/23 02:25:47;;;;;;;32.20;17.20;;;;;;;-1.63;92.99;100883.11;105119;1270;97997;-80
2023/11/23 02:28:33;;;;;;;36.20;17.00;;;;;;;-1.61;93.05;100873.01;105287;1273;101358;-80
2023/11/23 02:31:19;;;;;;;33.20;17.60;;;;;;;-1.60;93.01;100870.70;105239;1266;99272;-80
2023/11/23 02:34:04;;;;;;;37.00;19.60;;;;;;;-1.60;92.98;100862.30;105268;1267;98581;-80
2023/11/23 02:36:49;;;;;;;35.20;18.10;;;;;;;-1.59;93.20;100858.50;105022;1278;97937;-79
2023/11/23 02:39:35;;;;;;;31.90;18.40;;;;;;;-1.55;93.34;100858.83;105571;1270;97996;-80
2023/11/23 02:42:20;;;;;;;29.80;18.00;;;;;;;-1.55;93.37;100849.49;105711;1270;101452;-81
2023/11/23 02:45:07;;;;;;;37.60;19.30;;;;;;;-1.53;93.44;100836.46;106144;1267;99145;-81
2023/11/23 02:47:52;;;;;;;38.50;20.00;;;;;;;-1.51;93.62;100831.92;106108;1265;98100;-81
2023/11/23 02:50:38;;;;;;;34.60;19.30;;;;;;;-1.48;93.78;100821.02;106048;1265;97818;-81
2023/11/23 02:53:31;;;;;;;35.10;19.10;;;;;;;-1.46;93.84;100809.87;105843;1269;99687;-82
2023/11/23 02:56:17;;;;;;;41.60;20.10;;;;;;;-1.44;94.05;100800.44;106051;1269;101368;-78
2023/11/23 02:59:07;;;;;;;38.40;20.80;;;;;;;-1.42;94.15;100786.98;106105;1265;99256;-80
2023/11/23 03:01:53;;;;;;;38.10;21.40;;;;;;;-1.41;94.30;100778.29;106071;1270;99014;-81
2023/11/23 03:04:39;;;;;;;41.60;22.60;;;;;;;-1.40;94.46;100771.77;105725;1270;97968;-81
2023/11/23 03:07:25;;;;;;;38.00;21.50;;;;;;;-1.38;94.70;100762.52;105545;1269;98417;-80
2023/11/23 03:10:10;;;;;;;39.20;19.30;;;;;;;-1.35;94.75;100752.86;105582;1265;102677;-80
2023/11/23 03:12:55;;;;;;;40.80;21.60;;;;;;;-1.33;94.88;100747.11;105570;1267;99116;-80
2023/11/23 03:15:41;;;;;;;37.90;22.10;;;;;;;-1.32;95.05;100735.62;105532;1269;99425;-80
2023/11/23 03:18:26;;;;;;;38.10;20.80;;;;;;;-1.29;95.26;100726.54;105628;1264;97922;-80
2023/11/23 03:21:12;;;;;;;42.20;22.90;;;;;;;-1.28;95.42;100716.23;105506;1270;98464;-80
2023/11/23 03:23:58;;;;;;;40.00;21.10;;;;;;;-1.26;95.58;100698.09;105475;1269;102602;-80
2023/11/23 03:26:43;;;;;;;42.20;22.10;;;;;;;-1.25;95.59;100691.54;105640;1265;99217;-81
2023/11/23 03:29:29;;;;;;;45.30;21.80;;;;;;;-1.24;95.67;100677.56;105535;1265;97959;-80
2023/11/23 03:32:14;;;;;;;37.70;19.70;;;;;;;-1.21;95.88;100667.94;105719;1264;98017;-80
2023/11/23 03:35:00;;;;;;;40.70;22.00;;;;;;;-1.21;96.08;100655.45;105594;1269;98524;-82
2023/11/23 03:37:45;;;;;;;41.00;22.90;;;;;;;-1.19;96.25;100643.61;105597;1265;101520;-81
2023/11/23 03:40:31;;;;;;;44.00;22.20;;;;;;;-1.18;96.48;100637.58;105562;1269;99703;-80
2023/11/23 03:43:17;;;;;;;40.50;21.90;;;;;;;-1.17;96.62;100624.15;105498;1265;99061;-80
2023/11/23 03:46:02;;;;;;;41.60;20.90;;;;;;;-1.15;96.85;100614.91;105609;1267;97987;-80
2023/11/23 03:48:48;;;;;;;44.10;21.40;;;;;;;-1.13;97.02;100609.86;105705;1270;98436;-78
2023/11/23 03:51:33;;;;;;;40.90;21.40;;;;;;;-1.13;97.03;100597.38;105705;1269;102745;-83
2023/11/23 03:54:19;;;;;;;45.60;23.80;;;;;;;-1.10;97.18;100596.69;105593;1265;99160;-81
2023/11/23 03:57:04;;;;;;;48.90;24.90;;;;;;;-1.08;97.38;100588.11;105791;1265;97913;-80
2023/11/23 03:59:50;;;;;;;42.60;22.40;;;;;;;-1.06;97.50;100573.73;105590;1269;97995;-80
2023/11/23 04:02:36;;;;;;;43.20;22.10;;;;;;;-1.04;97.61;100563.95;105846;1270;98429;-81
2023/11/23 04:05:22;;;;;;;40.70;21.90;;;;;;;-1.02;97.80;100556.28;106093;1265;101342;-80
2023/11/23 04:08:07;;;;;;;41.00;22.80;;;;;;;-1.00;97.83;100552.44;106215;1265;99137;-81
2023/11/23 04:10:53;;;;;;;38.30;20.50;;;;;;;-0.98;97.97;100549.64;106046;1269;97881;-80
2023/11/23 04:13:38;;;;;;;42.80;22.00;;;;;;;-0.96;98.02;100541.65;105677;1269;97902;-81
2023/11/23 04:16:24;;;;;;;50.30;24.00;;;;;;;-0.94;98.17;100528.51;105659;1269;97964;-79
2023/11/23 04:19:09;;;;;;;50.20;25.10;;;;;;;-0.92;98.28;100519.55;105616;1267;101423;-80
2023/11/23 04:21:55;;;;;;;45.20;23.70;;;;;;;-0.90;98.38;100504.55;105595;1265;100356;-78
2023/11/23 04:24:41;;;;;;;36.10;19.50;;;;;;;-0.88;98.50;100490.19;106144;1264;97851;-80
2023/11/23 04:27:29;;;;;;;43.90;22.80;;;;;;;-0.86;98.63;100481.75;105610;1269;98065;-79
2023/11/23 04:30:14;;;;;;;38.40;21.30;;;;;;;-0.83;98.84;100474.52;106182;1266;97969;-80
2023/11/23 04:33:00;;;;;;;42.40;22.70;;;;;;;-0.80;98.96;100454.35;105516;1266;102231;-80
2023/11/23 04:35:45;;;;;;;41.90;22.40;;;;;;;-0.78;99.12;100441.04;105674;1267;99265;-80
2023/11/23 04:38:31;;;;;;;39.00;21.00;;;;;;;-0.75;99.10;100430.86;105620;1267;98081;-80
2023/11/23 04:41:16;;;;;;;39.90;20.40;;;;;;;-0.73;99.13;100421.36;105682;1265;98667;-80
2023/11/23 04:44:02;;;;;;;39.20;20.90;;;;;;;-0.70;99.45;100419.03;105495;1270;97986;-81
2023/11/23 04:46:48;;;;;;;43.40;22.90;;;;;;;-0.67;99.55;100419.47;105549;1270;101403;-79
2023/11/23 04:49:33;;;;;;;36.40;20.10;;;;;;;-0.63;99.57;100413.20;105646;1270;99745;-80
2023/11/23 04:52:19;;;;;;;39.90;22.40;;;;;;;-0.61;99.61;100402.15;105898;1267;99375;-79
2023/11/23 04:55:06;;;;;;;45.50;22.30;;;;;;;-0.60;99.84;100383.37;105568;1267;98906;-80
2023/11/23 04:57:52;;;;;;;43.00;21.80;;;;;;;-0.59;99.97;100377.95;105587;1266;98426;-80
2023/11/23 05:00:37;;;;;;;40.30;21.20;;;;;;;-0.57;100.00;100375.20;105564;1267;101505;-81
2023/11/23 05:03:23;;;;;;;37.70;20.70;;;;;;;-0.55;100.00;100373.84;105508;1270;100398;-80
2023/11/23 05:06:09;;;;;;;42.90;22.60;;;;;;;-0.55;100.00;100364.18;105557;1270;97888;-79
2023/11/23 05:08:56;;;;;;;39.60;22.20;;;;;;;-0.55;100.00;100350.30;105555;1267;97964;-81
2023/11/23 05:11:41;;;;;;;42.10;21.80;;;;;;;-0.54;100.00;100337.60;106014;1270;98555;-80
2023/11/23 05:14:27;;;;;;;39.20;21.10;;;;;;;-0.52;100.00;100338.68;105532;1266;101376;-80
2023/11/23 05:17:12;;;;;;;40.10;22.00;;;;;;;-0.51;100.00;100336.17;105597;1267;100291;-81
2023/11/23 05:19:58;;;;;;;42.00;20.20;;;;;;;-0.50;100.00;100330.30;105615;1267;97973;-80
2023/11/23 05:22:45;;;;;;;35.30;19.30;;;;;;;-0.49;100.00;100322.07;105495;1267;97975;-80
2023/11/23 05:25:31;;;;;;;37.70;19.90;;;;;;;-0.47;100.00;100304.44;105544;1267;98284;-80
2023/11/23 05:28:17;;;;;;;35.40;19.90;;;;;;;-0.45;100.00;100291.61;105433;1267;101585;-80
2023/11/23 05:31:03;;;;;;;41.00;20.70;;;;;;;-0.44;100.00;100275.71;105506;1267;100095;-80
2023/11/23 05:33:49;;;;;;;34.00;18.90;;;;;;;-0.43;100.00;100264.23;105467;1270;97990;-81
2023/11/23 05:36:34;;;;;;;35.60;19.40;;;;;;;-0.42;100.00;100251.88;105970;1269;97985;-80
2023/11/23 05:39:20;;;;;;;38.00;18.10;;;;;;;-0.41;100.00;100242.14;105424;1267;98550;-79
2023/11/23 05:42:06;;;;;;;35.70;20.40;;;;;;;-0.39;100.00;100234.77;105620;1265;101372;-80
2023/11/23 05:44:52;;;;;;;36.90;19.50;;;;;;;-0.36;100.00;100221.25;105595;1264;99185;-80
2023/11/23 05:47:37;;;;;;;36.00;19.30;;;;;;;-0.33;100.00;100209.74;105560;1265;99121;-82
2023/11/23 05:50:23;;;;;;;35.20;17.50;;;;;;;-0.30;100.00;100201.09;105569;1265;97981;-78
2023/11/23 05:53:09;;;;;;;35.60;19.50;;;;;;;-0.27;100.00;100198.39;105568;1267;98417;-80
2023/11/23 05:55:54;;;;;;;35.10;19.10;;;;;;;-0.24;100.00;100201.13;105612;1279;101422;-81
2023/11/23 05:58:40;;;;;;;33.90;17.30;;;;;;;-0.21;100.00;100199.24;105697;1265;99272;-79
2023/11/23 06:01:26;;;;;;;34.50;16.90;;;;;;;-0.18;100.00;100192.01;105648;1265;98938;-81
2023/11/23 06:04:12;;;;;;;33.40;17.40;;;;;;;-0.16;100.00;100189.20;105550;1265;98000;-80
2023/11/23 06:06:57;;;;;;;37.10;19.90;;;;;;;-0.14;100.00;100184.09;105487;1265;97836;-80
2023/11/23 06:09:43;;;;;;;33.20;18.20;;;;;;;-0.11;100.00;100181.04;105548;1265;101353;-81
2023/11/23 06:12:29;;;;;;;36.20;17.80;;;;;;;-0.09;100.00;100171.85;105660;1264;99064;-79
2023/11/23 06:15:14;;;;;;;34.90;19.10;;;;;;;-0.07;100.00;100154.86;105603;1269;98889;-80
2023/11/23 06:18:00;;;;;;;32.00;18.00;;;;;;;-0.04;100.00;100151.13;105502;1270;97985;-80
2023/11/23 06:20:46;;;;;;;34.40;17.90;;;;;;;-0.01;100.00;100145.98;105529;1269;97988;-81
2023/11/23 06:23:31;;;;;;;34.50;16.20;;;;;;;0.02;100.00;100147.15;105508;1265;101430;-79
2023/11/23 06:26:20;;;;;;;30.60;16.30;;;;;;;0.04;100.00;100149.55;105587;1265;99314;-80
2023/11/23 06:29:06;;;;;;;38.70;18.40;;;;;;;0.08;100.00;100153.08;105595;1265;97893;-82
2023/11/23 06:31:51;;;;;;;31.80;16.80;;;;;;;0.11;100.00;100151.21;105645;1269;97962;-82
2023/11/23 06:34:37;;;;;;;31.90;16.80;;;;;;;0.13;100.00;100148.24;106085;1265;97956;-81
2023/11/23 06:37:22;;;;;;;32.50;17.20;;;;;;;0.15;100.00;100145.42;106005;1265;102113;-83
2023/11/23 06:40:10;;;;;;;37.10;18.20;;;;;;;0.17;100.00;100151.92;105935;1265;99244;-81
2023/11/23 06:42:55;;;;;;;31.00;16.90;;;;;;;0.20;100.00;100152.41;105685;1265;99240;-79
2023/11/23 06:45:41;;;;;;;31.60;17.30;;;;;;;0.22;100.00;100145.21;105287;1265;98412;-80
2023/11/23 06:48:27;;;;;;;34.50;17.60;;;;;;;0.23;100.00;100134.92;106190;1265;98515;-80
2023/11/23 06:51:16;;;;;;;27.40;14.60;;;;;;;0.26;100.00;100124.83;105486;1264;102625;-79
2023/11/23 06:54:01;;;;;;;30.90;15.90;;;;;;;0.29;100.00;100107.48;105433;1265;99368;-80
2023/11/23 06:56:47;;;;;;;28.70;15.10;;;;;;;0.34;100.00;100102.21;105521;1265;98730;-80
2023/11/23 06:59:35;;;;;;;30.50;16.70;;;;;;;0.37;100.00;100104.66;105545;1264;97952;-79
2023/11/23 07:02:22;;;;;;;26.70;15.50;;;;;;;0.41;100.00;100093.77;105916;1265;98537;-80
2023/11/23 07:05:10;;;;;;;30.90;15.00;;;;;;;0.44;100.00;100085.63;105393;1265;102741;-80
2023/11/23 07:07:55;;;;;;;34.70;17.90;;;;;;;0.46;100.00;100073.65;105373;1270;99163;-81
2023/11/23 07:10:41;;;;;;;32.30;17.10;;;;;;;0.48;100.00;100076.09;105343;1265;98830;-80
2023/11/23 07:13:27;;;;;;;44.60;22.60;;;;;;;0.50;100.00;100075.09;105678;1265;98504;-80
2023/11/23 07:16:12;;;;;;;36.10;18.40;;;;;;;0.50;100.00;100060.45;105475;1265;97990;-80
2023/11/23 07:18:58;;;;;;;38.90;20.90;;;;;;;0.52;100.00;100060.16;105537;1269;101470;-79
2023/11/23 07:21:45;;;;;;;32.70;18.00;;;;;;;0.54;100.00;100061.02;105902;1269;99120;-80
2023/11/23 07:24:31;;;;;;;33.80;19.20;;;;;;;0.55;100.00;100051.92;105421;1265;98531;-81
2023/11/23 07:27:17;;;;;;;29.40;16.20;;;;;;;0.57;100.00;100043.36;105388;1269;98046;-80
2023/11/23 07:30:06;;;;;;;33.70;19.30;;;;;;;0.59;100.00;100035.08;105390;1269;98556;-80
2023/11/23 07:32:51;;;;;;;36.00;19.20;;;;;;;0.61;100.00;100032.46;105346;1265;101401;-80
2023/11/23 07:35:38;;;;;;;28.90;17.10;;;;;;;0.63;100.00;100029.97;105349;1265;99145;-81
2023/11/23 07:38:23;;;;;;;29.60;16.10;;;;;;;0.66;100.00;100019.20;105723;1265;98452;-80
2023/11/23 07:41:11;;;;;;;33.60;16.90;;;;;;;0.68;100.00;100014.39;105627;1266;97774;-79
2023/11/23 07:43:57;;;;;;;29.40;15.90;;;;;;;0.71;100.00;100009.25;107125;1269;97933;-80
2023/11/23 07:46:45;;;;;;;27.30;15.40;;;;;;;0.74;100.00;100009.16;105407;1264;101393;-80
2023/11/23 07:49:30;;;;;;;29.90;16.20;;;;;;;0.75;100.00;100005.35;106026;1265;100651;-80
2023/11/23 07:52:16;;;;;;;29.50;14.70;;;;;;;0.76;100.00;100000.87;106101;1265;99154;-80
2023/11/23 07:55:01;;;;;;;28.20;15.30;;;;;;;0.77;100.00;99994.79;105427;1265;100112;-80
2023/11/23 07:57:53;;;;;;;25.30;13.60;;;;;;;0.80;100.00;99989.23;105994;1265;97950;-81
2023/11/23 08:00:40;;;;;;;71.60;30.80;;;;;;;0.83;100.00;99979.48;105988;1265;102620;-81
2023/11/23 08:03:25;;;;;;;36.90;20.40;;;;;;;0.85;100.00;99972.63;105893;1265;100679;-80
2023/11/23 08:06:11;;;;;;;32.20;17.40;;;;;;;0.87;100.00;99974.77;105906;1265;98832;-80
2023/11/23 08:08:56;;;;;;;42.40;22.30;;;;;;;0.88;100.00;99968.64;105105;1267;97962;-79
2023/11/23 08:11:42;;;;;;;55.10;28.60;;;;;;;0.91;100.00;99962.73;105417;1270;99180;-79
2023/11/23 08:14:27;;;;;;;35.30;18.50;;;;;;;0.93;100.00;99959.02;105379;1270;103449;-80
2023/11/23 08:17:13;;;;;;;27.90;16.20;;;;;;;0.95;100.00;99958.00;105352;1265;99228;-80
2023/11/23 08:19:58;;;;;;;29.30;17.90;;;;;;;0.96;100.00;99959.34;105285;1269;97924;-79
2023/11/23 08:22:46;;;;;;;23.70;14.40;;;;;;;0.98;100.00;99956.87;105222;1265;97975;-78
2023/11/23 08:25:31;;;;;;;29.70;16.10;;;;;;;1.00;100.00;99955.09;105441;1264;97877;-81
2023/11/23 08:28:16;;;;;;;25.00;14.00;;;;;;;1.02;100.00;99949.27;105155;1265;101458;-80
2023/11/23 08:31:02;;;;;;;25.50;13.90;;;;;;;1.03;100.00;99947.00;105509;1269;99269;-80
2023/11/23 08:33:48;;;;;;;24.90;15.00;;;;;;;1.06;100.00;99947.83;105303;1269;97955;-79
2023/11/23 08:36:33;;;;;;;25.20;15.50;;;;;;;1.09;100.00;99945.83;106017;1269;97975;-82
2023/11/23 08:39:19;;;;;;;26.80;15.00;;;;;;;1.10;100.00;99944.95;105908;1265;97903;-81
2023/11/23 08:42:05;;;;;;;25.10;13.50;;;;;;;1.12;100.00;99940.23;105907;1265;102082;-82
2023/11/23 08:44:51;;;;;;;23.80;13.40;;;;;;;1.14;100.00;99926.86;105754;1264;99219;-82
2023/11/23 08:47:36;;;;;;;25.50;13.80;;;;;;;1.15;100.00;99919.38;105713;1269;98723;-83
2023/11/23 08:50:22;;;;;;;28.20;15.20;;;;;;;1.16;100.00;99922.20;105456;1264;142803;-81
2023/11/23 08:53:09;;;;;;;29.80;15.40;;;;;;;1.19;100.00;99924.18;105829;1267;98048;-81
2023/11/23 08:55:55;;;;;;;27.50;14.80;;;;;;;1.22;100.00;99917.61;105693;1265;101558;-83
2023/11/23 08:58:41;;;;;;;28.70;14.90;;;;;;;1.24;100.00;99903.84;105532;1265;99150;-85
2023/11/23 09:01:26;;;;;;;23.70;14.40;;;;;;;1.28;100.00;99891.02;105488;1267;97968;-77
2023/11/23 09:04:12;;;;;;;31.90;16.50;;;;;;;1.31;100.00;99876.69;104469;1268;97987;-78
2023/11/23 09:06:58;;;;;;;26.90;15.40;;;;;;;1.34;100.00;99870.59;104674;1268;99834;-77
2023/11/23 09:09:43;;;;;;;29.80;16.10;;;;;;;1.36;100.00;99859.58;104674;1269;101358;-77
2023/11/23 09:12:32;;;;;;;29.10;16.30;;;;;;;1.39;100.00;99851.42;104922;1265;99133;-81
2023/11/23 09:15:18;;;;;;;30.30;15.60;;;;;;;1.42;100.00;99842.30;105750;1265;98008;-82
2023/11/23 09:18:06;;;;;;;33.10;19.10;;;;;;;1.46;100.00;99831.77;105622;1265;97979;-81
2023/11/23 09:20:52;;;;;;;31.60;15.20;;;;;;;1.50;100.00;99826.30;105847;1269;97886;-81
2023/11/23 09:23:37;;;;;;;25.40;14.10;;;;;;;1.53;100.00;99819.92;105790;1265;101423;-80
2023/11/23 09:26:23;;;;;;;24.80;14.80;;;;;;;1.56;100.00;99812.63;105674;1269;99221;-81
2023/11/23 09:29:09;;;;;;;28.70;15.20;;;;;;;1.61;100.00;99808.30;105522;1268;106391;-81
2023/11/23 09:31:54;;;;;;;31.20;15.90;;;;;;;1.64;100.00;99802.37;105794;1267;97878;-81
2023/11/23 09:34:40;;;;;;;28.00;14.70;;;;;;;1.68;100.00;99791.02;105942;1264;98420;-81
2023/11/23 09:37:26;;;;;;;30.40;16.10;;;;;;;1.73;100.00;99785.27;105755;1269;102685;-84
2023/11/23 09:40:18;;;;;;;27.50;16.10;;;;;;;1.78;100.00;99785.31;105911;1265;100074;-82
2023/11/23 09:43:04;;;;;;;29.30;16.80;;;;;;;1.83;100.00;99785.66;105835;1265;99096;-81
2023/11/23 09:45:51;;;;;;;32.40;17.40;;;;;;;1.89;100.00;99796.02;105947;1267;98071;-80
2023/11/23 09:48:39;;;;;;;34.50;16.50;;;;;;;1.93;100.00;99795.09;106090;1265;98436;-80
2023/11/23 09:51:24;;;;;;;33.90;18.90;;;;;;;1.98;100.00;99791.43;105827;1267;102614;-81
2023/11/23 09:54:14;;;;;;;39.50;20.50;;;;;;;2.04;100.00;99783.37;105919;1265;99140;-80
2023/11/23 09:57:00;;;;;;;37.30;19.20;;;;;;;2.10;100.00;99763.74;105768;1269;99079;-81
2023/11/23 09:59:45;;;;;;;41.10;20.60;;;;;;;2.15;100.00;99753.78;105828;1269;97929;-85
2023/11/23 10:02:35;;;;;;;38.90;20.50;;;;;;;2.18;100.00;99743.92;104619;1265;98503;-76
2023/11/23 10:05:23;;;;;;;46.80;23.00;;;;;;;2.23;100.00;99740.83;104813;1270;101318;-75
2023/11/23 10:08:10;;;;;;;45.40;21.60;;;;;;;2.26;100.00;99740.44;105201;1264;100421;-82
2023/11/23 10:10:59;;;;;;;37.50;19.10;;;;;;;2.29;100.00;99737.89;104871;1270;98097;-82
2023/11/23 10:13:46;;;;;;;34.80;18.60;;;;;;;2.31;100.00;99733.48;104989;1269;98009;-79
2023/11/23 10:16:32;;;;;;;29.90;16.20;;;;;;;2.33;100.00;99720.51;105422;1267;97968;-82
2023/11/23 10:19:21;;;;;;;41.90;22.70;;;;;;;2.38;100.00;99707.73;105609;1265;111195;-81
2023/11/23 10:22:07;;;;;;;39.40;20.40;;;;;;;2.41;100.00;99707.31;105686;1267;99770;-79
2023/11/23 10:24:53;;;;;;;37.30;18.90;;;;;;;2.43;100.00;99702.30;105586;1270;97938;-80
2023/11/23 10:27:38;;;;;;;34.50;19.50;;;;;;;2.46;100.00;99697.43;105570;1268;97901;-80
2023/11/23 10:30:25;;;;;;;36.70;20.60;;;;;;;2.49;100.00;99694.41;105394;1270;98826;-80
2023/11/23 10:33:12;;;;;;;31.10;16.00;;;;;;;2.52;100.00;99690.42;105366;1265;102953;-80
2023/11/23 10:36:04;;;;;;;29.10;17.60;;;;;;;2.55;100.00;99683.73;105228;1269;99101;-78
2023/11/23 10:38:54;;;;;;;32.30;17.60;;;;;;;2.58;100.00;99670.90;105451;1265;98477;-80
2023/11/23 10:41:41;;;;;;;30.00;16.40;;;;;;;2.62;100.00;99667.54;106064;1265;98080;-81
2023/11/23 10:44:29;;;;;;;26.20;16.60;;;;;;;2.65;100.00;99658.02;106150;1265;97894;-80
2023/11/23 10:47:16;;;;;;;26.80;15.20;;;;;;;2.68;100.00;99657.19;106818;1264;101467;-81
2023/11/23 10:50:05;;;;;;;28.50;16.60;;;;;;;2.71;100.00;99653.52;106020;1265;99159;-79
2023/11/23 10:52:54;;;;;;;31.30;15.70;;;;;;;2.75;100.00;99650.15;105483;1268;98690;-80
2023/11/23 10:55:40;;;;;;;30.00;16.00;;;;;;;2.79;100.00;99642.30;105323;1265;98004;-80
2023/11/23 10:58:28;;;;;;;26.00;17.50;;;;;;;2.83;100.00;99635.72;105372;1265;97905;-79
2023/11/23 11:01:21;;;;;;;24.50;15.70;;;;;;;2.86;100.00;99632.16;105294;1267;101555;-78
2023/11/23 11:04:08;;;;;;;25.30;16.40;;;;;;;2.90;100.00;99621.85;105271;1265;99180;-80
2023/11/23 11:06:56;;;;;;;28.40;16.10;;;;;;;2.94;100.00;99609.96;105511;1267;98453;-79
2023/11/23 11:09:44;;;;;;;26.60;16.50;;;;;;;2.98;100.00;99602.66;105727;1265;97988;-80
2023/11/23 11:12:36;;;;;;;25.00;15.00;;;;;;;3.03;100.00;99601.10;105732;1267;98431;-79
2023/11/23 11:15:22;;;;;;;25.10;14.70;;;;;;;3.08;100.00;99588.67;105626;1270;102405;-80
2023/11/23 11:18:10;;;;;;;24.80;16.90;;;;;;;3.13;100.00;99588.83;105672;1265;99818;-81
2023/11/23 11:21:09;;;;;;;28.50;16.80;;;;;;;3.18;100.00;99594.20;105514;1268;99562;-79
2023/11/23 11:23:55;;;;;;;25.50;17.40;;;;;;;3.23;100.00;99596.48;106124;1269;97831;-79
2023/11/23 11:26:41;;;;;;;22.80;14.90;;;;;;;3.28;100.00;99591.75;105013;1265;97984;-78
2023/11/23 11:29:30;;;;;;;28.90;19.60;;;;;;;3.32;100.00;99588.25;104882;1267;101458;-78
2023/11/23 11:32:17;;;;;;;26.30;16.80;;;;;;;3.35;100.00;99577.34;104864;1265;100311;-76
2023/11/23 11:35:03;;;;;;;34.30;22.70;;;;;;;3.38;100.00;99560.03;104837;1270;97973;-78
2023/11/23 11:37:51;;;;;;;29.50;18.50;;;;;;;3.42;100.00;99562.64;105145;1265;98939;-86
2023/11/23 11:40:37;;;;;;;29.80;17.60;;;;;;;3.46;100.00;99549.85;105986;1269;97980;-83
2023/11/23 11:43:23;;;;;;;40.30;24.20;;;;;;;3.49;100.00;99536.23;105857;1265;101817;-83
2023/11/23 11:46:08;;;;;;;34.00;20.50;;;;;;;3.53;100.00;99532.79;105558;1264;99167;-83
2023/11/23 11:48:59;;;;;;;44.20;27.80;;;;;;;3.56;100.00;99527.15;105367;1270;98059;-83
2023/11/23 11:51:45;;;;;;;25.20;17.90;;;;;;;3.60;100.00;99519.86;105392;1272;98050;-82
2023/11/23 11:54:37;;;;;;;31.90;19.80;;;;;;;3.64;100.00;99510.23;105727;1265;97966;-78
2023/11/23 11:57:23;;;;;;;26.20;18.20;;;;;;;3.67;100.00;99515.67;105694;1265;102119;-78
2023/11/23 12:00:09;;;;;;;27.50;17.50;;;;;;;3.71;100.00;99506.30;105418;1269;99321;-79
2023/11/23 12:02:56;;;;;;;30.60;22.60;;;;;;;3.74;100.00;99502.78;105560;1265;97803;-80
2023/11/23 12:05:42;;;;;;;25.00;17.50;;;;;;;3.76;100.00;99494.36;105647;1269;97894;-79
2023/11/23 12:08:35;;;;;;;26.70;19.10;;;;;;;3.79;100.00;99490.18;105457;1265;98044;-77
2023/11/23 12:11:24;;;;;;;24.30;17.00;;;;;;;3.82;100.00;99486.83;105443;1264;101395;-79
2023/11/23 12:14:10;;;;;;;25.70;16.80;;;;;;;3.86;100.00;99479.14;105203;1269;99185;-78
2023/11/23 12:17:11;;;;;;;30.80;19.10;;;;;;;3.90;100.00;99474.83;105317;1265;99151;-79
2023/11/23 12:19:57;;;;;;;28.10;17.70;;;;;;;3.94;100.00;99471.39;105330;1265;98006;-79
2023/11/23 12:22:46;;;;;;;22.80;15.60;;;;;;;3.98;100.00;99464.73;105448;1265;97970;-78
2023/11/23 12:25:33;;;;;;;28.10;18.10;;;;;;;4.03;100.00;99454.50;105267;1269;101366;-79
2023/11/23 12:28:20;;;;;;;30.30;18.90;;;;;;;4.07;100.00;99449.17;105410;1265;100475;-79